Time;durP1;ratioP1;P1;durP2;ratioP2;P2;SDS_P1;SDS_P2;PMS_P1;PMS_P2;Temp;Humidity;BMP_temperature;BMP_pressure;BME280_temperature;BME280_humidity;BME280_pressure;Samples;Min_cycle;Max_cycle;Signal;HPM_P1;HPM_P2
2021/07/30 00:00:44;;;;;;;7.47;2.90;;;;;;;;;;4140865;28;20471;-43
2021/07/30 00:02:46;;;;;;;7.28;2.83;;;;;;;;;;4136617;28;20122;-43
2021/07/30 00:04:49;;;;;;;4.32;2.40;;;;;;;;;;4133679;28;20253;-50
2021/07/30 00:06:51;;;;;;;4.47;2.28;;;;;;;;;;4122989;28;20155;-46
2021/07/30 00:08:53;;;;;;;4.65;2.28;;;;;;;;;;4114715;28;20929;-46
2021/07/30 00:10:55;;;;;;;6.78;2.90;;;;;;;;;;4140922;28;20037;-44
2021/07/30 00:12:57;;;;;;;5.50;3.00;;;;;;;;;;4138565;28;20116;-48
2021/07/30 00:14:59;;;;;;;5.80;2.75;;;;;;;;;;4139106;28;20093;-47
2021/07/30 00:17:01;;;;;;;7.45;2.80;;;;;;;;;;4140218;28;20421;-43
2021/07/30 00:19:03;;;;;;;6.15;2.67;;;;;;;;;;4139660;28;20033;-42
2021/07/30 00:21:05;;;;;;;5.97;2.45;;;;;;;;;;4141425;28;20446;-44
2021/07/30 00:23:07;;;;;;;4.85;2.30;;;;;;;;;;4139754;28;21631;-46
2021/07/30 00:25:09;;;;;;;5.40;2.40;;;;;;;;;;4136302;28;20040;-44
2021/07/30 00:27:11;;;;;;;5.57;2.58;;;;;;;;;;4136259;28;20044;-45
2021/07/30 00:29:13;;;;;;;7.85;2.40;;;;;;;;;;4138732;28;20749;-47
2021/07/30 00:31:15;;;;;;;6.95;2.60;;;;;;;;;;4135626;28;20178;-45
2021/07/30 00:33:17;;;;;;;7.82;2.35;;;;;;;;;;4136665;28;20056;-46
2021/07/30 00:35:19;;;;;;;5.18;3.10;;;;;;;;;;4139369;28;20140;-48
2021/07/30 00:37:21;;;;;;;5.60;2.45;;;;;;;;;;4137453;28;20602;-45
2021/07/30 00:39:23;;;;;;;6.40;2.83;;;;;;;;;;4141899;28;20360;-50
2021/07/30 00:41:25;;;;;;;6.07;2.35;;;;;;;;;;4138172;28;20245;-45
2021/07/30 00:43:27;;;;;;;5.05;2.30;;;;;;;;;;4140531;28;20037;-44
2021/07/30 00:45:29;;;;;;;4.50;2.25;;;;;;;;;;4140217;28;20032;-52
2021/07/30 00:47:32;;;;;;;6.15;2.65;;;;;;;;;;4138168;28;20229;-43
2021/07/30 00:49:35;;;;;;;5.87;2.30;;;;;;;;;;4140427;28;20036;-47
2021/07/30 00:51:38;;;;;;;6.50;2.60;;;;;;;;;;4141698;28;20037;-42
2021/07/30 00:53:40;;;;;;;13.93;2.38;;;;;;;;;;4139502;28;20048;-44
2021/07/30 00:55:44;;;;;;;5.32;2.25;;;;;;;;;;4137076;28;20124;-43
2021/07/30 00:57:46;;;;;;;5.63;2.28;;;;;;;;;;4139129;28;20037;-43
2021/07/30 00:59:48;;;;;;;6.68;2.15;;;;;;;;;;4139665;28;20140;-42
2021/07/30 01:01:51;;;;;;;6.65;2.40;;;;;;;;;;4139187;28;20589;-43
2021/07/30 01:03:53;;;;;;;5.82;2.40;;;;;;;;;;4141586;28;20614;-42
2021/07/30 01:05:55;;;;;;;5.75;2.30;;;19.50;40.40;;;;;;4138059;28;20653;-43
2021/07/30 01:08:01;;;;;;;5.88;1.92;;;19.40;41.70;;;;;;4141617;28;20055;-45
2021/07/30 01:10:05;;;;;;;5.97;1.90;;;19.50;41.90;;;;;;4138399;28;21115;-45
2021/07/30 01:12:09;;;;;;;5.13;2.33;;;19.60;42.30;;;;;;4140567;28;20065;-43
2021/07/30 01:14:11;;;;;;;4.68;2.00;;;19.80;41.50;;;;;;4138546;28;20125;-42
2021/07/30 01:16:14;;;;;;;5.32;1.98;;;;;;;;;;4137093;28;20040;-44
2021/07/30 01:18:16;;;;;;;5.72;2.03;;;;;;;;;;4139798;28;20036;-48
2021/07/30 01:20:21;;;;;;;5.18;2.00;;;;;;;;;;4141326;28;20110;-48
2021/07/30 01:22:31;;;;;;;4.13;1.95;;;;;;;;;;4140373;28;20052;-47
2021/07/30 01:24:33;;;;;;;4.25;2.13;;;19.90;41.40;;;;;;4140356;28;20033;-43
2021/07/30 01:26:35;;;;;;;4.28;2.03;;;20.40;40.70;;;;;;4141081;28;20524;-46
2021/07/30 01:28:37;;;;;;;4.65;2.30;;;20.50;40.50;;;;;;4135987;28;21406;-45
2021/07/30 01:30:39;;;;;;;4.15;1.80;;;20.50;40.50;;;;;;4141381;28;20060;-43
2021/07/30 01:32:42;;;;;;;4.78;2.28;;;20.60;40.40;;;;;;4137247;28;20513;-45
2021/07/30 01:34:44;;;;;;;4.32;1.88;;;20.70;40.30;;;;;;4140340;28;20668;-45
2021/07/30 01:36:47;;;;;;;5.80;2.42;;;20.70;40.70;;;;;;4139538;28;20144;-44
2021/07/30 01:38:49;;;;;;;4.07;2.20;;;20.60;39.90;;;;;;4140096;28;20033;-44
2021/07/30 01:40:51;;;;;;;5.07;2.20;;;20.40;39.90;;;;;;4136703;28;20033;-47
2021/07/30 01:42:53;;;;;;;3.40;2.20;;;20.40;40.00;;;;;;4138353;28;20037;-44
2021/07/30 01:44:55;;;;;;;3.78;2.00;;;20.30;40.00;;;;;;4137268;28;20037;-47
2021/07/30 01:46:57;;;;;;;4.65;2.20;;;20.10;40.10;;;;;;4134720;28;20118;-46
2021/07/30 01:48:59;;;;;;;3.70;2.13;;;20.10;40.20;;;;;;4139064;28;20663;-45
2021/07/30 01:51:02;;;;;;;5.95;2.15;;;20.00;40.30;;;;;;4137771;28;20033;-48
2021/07/30 01:53:04;;;;;;;12.57;2.70;;;19.80;40.60;;;;;;4138281;28;20029;-44
2021/07/30 01:55:07;;;;;;;5.82;2.17;;;19.80;40.50;;;;;;4140776;28;20374;-45
2021/07/30 01:57:09;;;;;;;4.30;1.93;;;19.70;40.70;;;;;;4140226;28;20698;-46
2021/07/30 01:59:11;;;;;;;5.20;2.38;;;19.70;40.70;;;;;;4140178;28;20095;-49
2021/07/30 02:01:13;;;;;;;5.00;2.17;;;19.60;40.70;;;;;;4138806;28;20509;-46
2021/07/30 02:03:15;;;;;;;5.40;2.40;;;19.50;40.80;;;;;;4139188;28;20084;-47
2021/07/30 02:05:18;;;;;;;4.47;2.20;;;19.50;40.80;;;;;;4139865;28;20545;-47
2021/07/30 02:07:20;;;;;;;4.90;2.03;;;19.40;40.80;;;;;;4129377;28;20095;-46
2021/07/30 02:09:22;;;;;;;5.93;2.40;;;19.40;40.80;;;;;;4114762;28;20275;-44
2021/07/30 02:11:24;;;;;;;5.95;2.65;;;19.40;40.90;;;;;;4137843;28;20060;-49
2021/07/30 02:15:46;;;;;;;4.10;1.98;;;19.30;42.00;;;;;;4143192;28;20117;-45
2021/07/30 02:17:48;;;;;;;5.47;2.25;;;19.20;41.40;;;;;;4135034;28;20051;-47
2021/07/30 02:19:50;;;;;;;5.53;2.20;;;19.20;41.70;;;;;;4138575;28;20899;-47
2021/07/30 02:21:55;;;;;;;3.60;1.98;;;19.20;41.20;;;;;;4139167;28;20061;-46
2021/07/30 02:23:57;;;;;;;4.15;2.22;;;19.10;41.50;;;;;;4141514;28;21533;-46
2021/07/30 02:25:59;;;;;;;3.72;2.05;;;19.10;41.30;;;;;;4141847;28;20047;-45
2021/07/30 02:28:01;;;;;;;4.28;1.70;;;19.10;41.40;;;;;;4139582;28;20037;-45
2021/07/30 02:30:03;;;;;;;3.70;1.90;;;19.00;41.20;;;;;;4143606;28;20689;-46
2021/07/30 02:32:06;;;;;;;4.43;2.10;;;19.00;41.40;;;;;;4139435;28;20037;-43
2021/07/30 02:34:08;;;;;;;4.03;1.67;;;19.00;41.60;;;;;;4138508;28;20117;-43
2021/07/30 02:36:10;;;;;;;4.05;1.90;;;19.00;41.80;;;;;;4140185;28;20169;-44
2021/07/30 02:38:13;;;;;;;7.85;1.73;;;18.90;41.90;;;;;;4140976;28;20053;-43
2021/07/30 02:40:15;;;;;;;4.13;1.70;;;18.90;41.60;;;;;;4140779;28;20052;-43
2021/07/30 02:42:17;;;;;;;4.50;1.85;;;18.90;41.70;;;;;;4143622;28;20148;-43
2021/07/30 02:44:19;;;;;;;5.20;2.10;;;18.90;41.60;;;;;;4142814;28;20064;-48
2021/07/30 02:46:21;;;;;;;5.38;2.40;;;18.80;42.10;;;;;;4142004;28;20521;-44
2021/07/30 02:48:23;;;;;;;4.20;1.92;;;18.80;41.70;;;;;;4143115;28;20868;-43
2021/07/30 02:50:26;;;;;;;5.28;2.10;;;18.80;41.80;;;;;;4142185;28;20418;-43
2021/07/30 02:52:28;;;;;;;3.78;1.90;;;18.80;41.60;;;;;;4138990;28;20030;-46
2021/07/30 02:54:30;;;;;;;4.78;2.05;;;18.80;41.90;;;;;;4140240;28;20080;-47
2021/07/30 02:56:32;;;;;;;4.07;1.85;;;18.70;42.40;;;;;;4142624;28;20040;-46
2021/07/30 02:58:36;;;;;;;3.35;1.77;;;18.70;42.20;;;;;;4141451;28;20053;-45
2021/07/30 03:00:38;;;;;;;2.67;1.65;;;18.70;42.10;;;;;;4140843;28;20033;-45
2021/07/30 03:02:40;;;;;;;4.65;2.10;;;18.70;42.70;;;;;;4140757;28;20053;-46
2021/07/30 03:04:42;;;;;;;3.83;2.08;;;18.70;43.10;;;;;;4141413;28;20037;-43
2021/07/30 03:06:45;;;;;;;4.68;2.20;;;18.70;43.30;;;;;;4142858;28;20390;-45
2021/07/30 03:08:47;;;;;;;5.70;1.90;;;18.70;43.40;;;;;;4144936;28;20534;-45
2021/07/30 03:10:49;;;;;;;3.72;1.67;;;18.70;43.50;;;;;;4141921;28;20025;-48
2021/07/30 03:12:51;;;;;;;5.88;2.08;;;18.70;43.00;;;;;;4144630;28;20106;-45
2021/07/30 03:14:53;;;;;;;4.80;2.08;;;18.70;43.20;;;;;;4141616;28;20588;-43
2021/07/30 03:16:55;;;;;;;3.90;1.63;;;18.70;43.30;;;;;;4142391;28;20466;-42
2021/07/30 03:18:57;;;;;;;4.13;1.98;;;18.70;43.40;;;;;;4143061;28;20556;-43
2021/07/30 03:21:00;;;;;;;4.47;2.15;;;18.70;43.60;;;;;;4144348;28;20034;-43
2021/07/30 03:23:02;;;;;;;2.97;1.60;;;18.80;43.50;;;;;;4143205;28;20036;-44
2021/07/30 03:25:04;;;;;;;5.45;2.15;;;18.80;43.40;;;;;;4150120;28;20427;-45
2021/07/30 03:27:07;;;;;;;3.97;1.80;;;18.80;43.40;;;;;;4150062;28;20768;-50
2021/07/30 03:29:09;;;;;;;4.55;2.30;;;18.80;43.50;;;;;;4148201;28;20034;-43
2021/07/30 03:31:11;;;;;;;4.38;1.52;;;18.80;43.40;;;;;;4146621;28;20326;-46
2021/07/30 03:33:13;;;;;;;4.00;1.85;;;18.80;43.40;;;;;;4146424;28;20025;-45
2021/07/30 03:35:15;;;;;;;3.85;1.90;;;18.80;43.40;;;;;;4142204;28;20549;-45
2021/07/30 03:37:17;;;;;;;3.25;1.75;;;18.80;43.30;;;;;;4140415;28;20044;-46
2021/07/30 03:39:19;;;;;;;3.22;2.00;;;18.80;43.30;;;;;;4141367;28;20464;-45
2021/07/30 03:41:21;;;;;;;7.20;2.20;;;18.80;43.30;;;;;;4140415;28;20040;-47
2021/07/30 03:43:23;;;;;;;3.40;1.60;;;18.80;43.30;;;;;;4138036;28;20045;-48
2021/07/30 03:45:25;;;;;;;3.88;1.83;;;18.90;43.40;;;;;;4140435;28;20040;-46
2021/07/30 03:47:27;;;;;;;6.15;2.30;;;18.90;43.30;;;;;;4139640;28;20033;-45
2021/07/30 03:49:30;;;;;;;4.72;2.20;;;18.90;43.20;;;;;;4141493;28;20041;-44
2021/07/30 03:51:32;;;;;;;3.33;2.13;;;19.00;43.10;;;;;;4139525;28;20142;-44
2021/07/30 03:53:34;;;;;;;3.97;2.10;;;19.00;42.90;;;;;;4139262;28;20033;-44
2021/07/30 03:55:36;;;;;;;3.85;1.88;;;19.00;42.80;;;;;;4138586;28;20767;-46
2021/07/30 03:57:38;;;;;;;3.70;1.83;;;19.00;42.90;;;;;;4139814;28;20477;-45
2021/07/30 03:59:40;;;;;;;4.20;1.90;;;19.00;42.70;;;;;;4141649;28;20041;-43
2021/07/30 04:01:48;;;;;;;2.97;1.88;;;19.10;42.60;;;;;;4139359;28;20128;-46
2021/07/30 04:03:50;;;;;;;4.70;1.65;;;19.10;42.60;;;;;;4142683;28;20067;-45
2021/07/30 04:05:52;;;;;;;3.53;2.08;;;19.20;42.70;;;;;;4137419;28;20134;-45
2021/07/30 04:07:56;;;;;;;4.03;1.75;;;19.20;42.60;;;;;;4138344;28;20417;-44
2021/07/30 04:09:58;;;;;;;3.92;1.75;;;19.20;42.60;;;;;;4140503;28;20029;-48
2021/07/30 04:12:00;;;;;;;4.53;1.90;;;19.30;42.60;;;;;;4141448;28;20033;-49
2021/07/30 04:14:02;;;;;;;5.47;1.98;;;19.40;42.60;;;;;;4140660;28;20419;-44
2021/07/30 04:16:05;;;;;;;4.88;2.08;;;19.40;42.50;;;;;;4139295;28;20523;-46
2021/07/30 04:18:07;;;;;;;;;;;19.40;42.50;;;;;;4138435;28;20102;-48
2021/07/30 04:20:10;;;;;;;3.40;1.92;;;19.50;42.50;;;;;;4137412;28;20384;-45
2021/07/30 04:22:12;;;;;;;3.67;1.75;;;19.50;42.40;;;;;;4140986;28;20127;-45
2021/07/30 04:24:14;;;;;;;3.05;1.75;;;19.60;42.40;;;;;;4141047;28;20037;-46
2021/07/30 04:26:16;;;;;;;3.35;1.80;;;19.60;42.20;;;;;;4140276;28;20036;-50
2021/07/30 04:28:18;;;;;;;3.35;1.60;;;19.70;42.20;;;;;;4140185;28;20052;-44
2021/07/30 04:30:21;;;;;;;3.15;1.80;;;19.70;42.20;;;;;;4136661;28;20065;-46
2021/07/30 04:32:23;;;;;;;3.97;2.13;;;19.80;42.20;;;;;;4137243;28;20677;-46
2021/07/30 04:34:28;;;;;;;3.53;1.77;;;19.80;42.00;;;;;;4140021;28;20311;-44
2021/07/30 04:36:30;;;;;;;3.42;1.73;;;19.80;41.70;;;;;;4139241;28;20059;-45
2021/07/30 04:38:33;;;;;;;4.55;1.90;;;19.90;40.70;;;;;;4140603;28;20036;-47
2021/07/30 04:40:38;;;;;;;3.83;1.73;;;19.90;40.10;;;;;;4136696;28;20028;-45
2021/07/30 04:42:40;;;;;;;2.72;1.90;;;19.90;40.20;;;;;;4133661;28;20037;-46
2021/07/30 04:44:42;;;;;;;3.70;1.67;;;19.90;40.10;;;;;;4137466;28;20040;-45
2021/07/30 04:46:44;;;;;;;4.82;1.75;;;19.90;39.90;;;;;;4136650;28;20458;-46
2021/07/30 04:48:47;;;;;;;6.22;1.90;;;20.00;39.50;;;;;;4139487;28;20246;-47
2021/07/30 04:50:49;;;;;;;3.92;1.98;;;20.00;39.20;;;;;;4135885;28;20029;-44
2021/07/30 04:52:54;;;;;;;3.65;1.90;;;20.00;39.70;;;;;;4138160;28;20453;-44
2021/07/30 04:54:57;;;;;;;4.07;1.90;;;20.10;39.20;;;;;;4138258;28;20991;-47
2021/07/30 04:56:59;;;;;;;4.95;2.17;;;20.10;39.20;;;;;;4137671;28;20371;-48
2021/07/30 04:59:01;;;;;;;5.47;2.20;;;20.10;39.20;;;;;;4139491;28;21405;-47
2021/07/30 05:01:06;;;;;;;3.50;1.90;;;20.20;39.40;;;;;;4135749;28;20033;-49
2021/07/30 05:03:08;;;;;;;3.80;1.95;;;20.20;39.00;;;;;;4140507;28;20454;-45
2021/07/30 05:05:10;;;;;;;3.78;1.80;;;20.20;38.90;;;;;;4138209;28;20233;-47
2021/07/30 05:07:13;;;;;;;5.15;2.20;;;20.20;38.80;;;;;;4141664;28;20158;-51
2021/07/30 05:09:15;;;;;;;4.40;1.80;;;;;;;;;;4142481;28;20047;-47
2021/07/30 05:11:17;;;;;;;4.03;1.95;;;20.30;39.60;;;;;;4137446;28;20173;-44
2021/07/30 05:13:20;;;;;;;4.45;2.17;;;20.30;39.00;;;;;;4140842;28;20339;-48
2021/07/30 05:15:22;;;;;;;4.25;2.00;;;20.30;39.00;;;;;;4137556;28;20493;-47
2021/07/30 05:17:24;;;;;;;3.85;1.90;;;20.30;38.90;;;;;;4141426;28;20038;-43
2021/07/30 05:19:26;;;;;;;3.47;2.08;;;20.40;38.80;;;;;;4140768;28;20033;-44
2021/07/30 05:21:28;;;;;;;4.95;2.13;;;20.40;38.60;;;;;;4139478;28;20041;-47
2021/07/30 05:23:31;;;;;;;3.15;2.10;;;20.40;38.50;;;;;;4139177;28;20045;-47
2021/07/30 05:25:33;;;;;;;4.22;1.95;;;20.40;38.40;;;;;;4136601;28;20033;-44
2021/07/30 05:27:35;;;;;;;4.15;2.20;;;20.40;38.40;;;;;;4139540;28;20742;-44
2021/07/30 05:29:37;;;;;;;3.35;2.00;;;20.40;38.10;;;;;;4137286;28;20040;-43
2021/07/30 05:31:39;;;;;;;3.67;2.00;;;20.50;38.60;;;;;;4138824;28;20473;-45
2021/07/30 05:33:42;;;;;;;4.60;2.35;;;20.50;38.70;;;;;;4141588;28;20033;-43
2021/07/30 05:35:44;;;;;;;4.15;2.13;;;20.50;38.80;;;;;;4136422;28;20036;-44
2021/07/30 05:37:47;;;;;;;3.80;2.33;;;20.60;38.90;;;;;;4139040;28;20102;-44
2021/07/30 05:39:49;;;;;;;5.88;2.28;;;20.70;39.00;;;;;;4140245;28;20037;-47
2021/07/30 05:41:51;;;;;;;5.85;2.20;;;20.70;39.10;;;;;;4139055;28;20021;-44
2021/07/30 05:43:53;;;;;;;6.68;2.17;;;20.70;39.40;;;;;;4133355;28;20136;-42
2021/07/30 05:45:55;;;;;;;4.72;2.05;;;20.70;39.50;;;;;;4139480;28;20148;-43
2021/07/30 05:47:57;;;;;;;6.97;2.10;;;20.70;39.80;;;;;;4140387;28;20622;-46
2021/07/30 05:49:59;;;;;;;6.22;2.20;;;20.70;40.60;;;;;;4137382;28;20047;-43
2021/07/30 05:52:01;;;;;;;4.18;2.15;;;20.70;40.90;;;;;;4137839;28;20545;-42
2021/07/30 05:54:04;;;;;;;3.75;2.00;;;20.70;41.10;;;;;;4137823;28;20341;-42
2021/07/30 05:56:06;;;;;;;4.20;2.23;;;20.60;41.30;;;;;;4135117;28;20384;-43
2021/07/30 05:58:08;;;;;;;2.65;1.80;;;20.60;41.50;;;;;;4137384;28;20120;-43
2021/07/30 06:00:11;;;;;;;5.68;2.15;;;20.60;41.60;;;;;;4137151;28;20091;-44
2021/07/30 06:02:13;;;;;;;5.05;2.20;;;20.50;41.70;;;;;;4136123;28;20439;-46
2021/07/30 06:04:15;;;;;;;3.78;1.83;;;20.50;41.70;;;;;;4138070;28;20495;-44
2021/07/30 06:06:17;;;;;;;3.42;2.20;;;20.50;42.00;;;;;;4138745;28;20329;-45
2021/07/30 06:08:19;;;;;;;4.57;2.00;;;20.50;42.20;;;;;;4139284;28;20049;-46
2021/07/30 06:10:21;;;;;;;6.37;2.40;;;20.50;42.30;;;;;;4139809;28;20131;-44
2021/07/30 06:12:24;;;;;;;5.63;1.80;;;20.50;42.50;;;;;;4142871;28;21022;-43
2021/07/30 06:14:26;;;;;;;5.80;1.98;;;20.50;42.50;;;;;;4139953;28;20411;-43
2021/07/30 06:16:28;;;;;;;4.78;2.22;;;20.40;42.70;;;;;;4139903;28;20032;-45
2021/07/30 06:18:30;;;;;;;4.28;1.92;;;20.40;42.60;;;;;;4138552;28;20034;-45
2021/07/30 06:20:32;;;;;;;5.03;2.05;;;20.40;42.60;;;;;;4140408;28;20657;-44
2021/07/30 06:22:36;;;;;;;3.28;1.95;;;20.40;42.80;;;;;;4140725;28;20128;-43
2021/07/30 06:24:39;;;;;;;3.53;1.85;;;20.40;42.90;;;;;;4140416;28;20144;-46
2021/07/30 06:26:41;;;;;;;2.83;1.58;;;20.40;42.80;;;;;;4138721;28;20029;-45
2021/07/30 06:28:43;;;;;;;3.80;2.00;;;20.40;43.20;;;;;;4136045;28;20045;-48
2021/07/30 06:30:45;;;;;;;3.63;2.10;;;20.40;43.00;;;;;;4140161;28;20032;-43
2021/07/30 06:32:48;;;;;;;6.20;2.33;;;20.40;43.00;;;;;;4141081;28;20171;-43
2021/07/30 06:34:50;;;;;;;4.50;1.98;;;20.40;43.00;;;;;;4139554;28;20580;-44
2021/07/30 06:36:56;;;;;;;4.57;1.63;;;20.40;43.00;;;;;;4139974;28;20532;-45
2021/07/30 06:38:58;;;;;;;3.90;2.13;;;20.40;43.10;;;;;;4139384;28;20838;-45
2021/07/30 06:41:00;;;;;;;4.40;1.88;;;20.40;43.10;;;;;;4140557;28;20573;-46
2021/07/30 06:43:02;;;;;;;2.83;1.80;;;20.40;43.10;;;;;;4139410;28;20075;-44
2021/07/30 06:45:06;;;;;;;3.92;2.35;;;20.40;43.30;;;;;;4138570;28;20062;-44
2021/07/30 06:47:08;;;;;;;4.30;2.22;;;20.30;43.30;;;;;;4137039;28;20052;-45
2021/07/30 06:49:10;;;;;;;4.13;1.70;;;20.40;43.40;;;;;;4135025;28;20032;-43
2021/07/30 06:51:13;;;;;;;5.75;2.20;;;20.30;43.30;;;;;;4139644;28;20127;-44
2021/07/30 06:53:15;;;;;;;4.22;1.92;;;20.30;43.40;;;;;;4139276;28;20033;-46
2021/07/30 06:55:17;;;;;;;3.33;1.90;;;20.30;43.40;;;;;;4140212;28;20029;-44
2021/07/30 06:57:19;;;;;;;3.22;1.90;;;20.30;43.50;;;;;;4137611;28;20057;-44
2021/07/30 06:59:21;;;;;;;4.95;2.15;;;20.30;43.60;;;;;;4141409;28;20041;-43
2021/07/30 07:04:21;;;;;;;4.03;2.00;;;20.30;43.70;;;;;;4140826;28;20063;-45
2021/07/30 07:06:23;;;;;;;5.25;2.17;;;20.30;43.80;;;;;;4138768;28;20127;-46
2021/07/30 07:08:26;;;;;;;4.88;2.20;;;20.30;43.80;;;;;;4137560;28;20221;-44
2021/07/30 07:10:28;;;;;;;3.38;2.15;;;20.30;44.20;;;;;;4141579;28;20863;-43
2021/07/30 07:12:31;;;;;;;7.72;3.15;;;20.30;44.10;;;;;;4141105;28;20057;-44
2021/07/30 07:14:33;;;;;;;5.65;2.88;;;20.20;44.00;;;;;;4143016;28;20361;-45
2021/07/30 07:16:35;;;;;;;6.03;3.40;;;20.20;44.10;;;;;;4139586;28;20709;-43
2021/07/30 07:18:38;;;;;;;6.68;3.15;;;20.20;43.80;;;;;;4139284;28;20131;-44
2021/07/30 07:20:41;;;;;;;7.03;3.33;;;20.20;43.70;;;;;;4140568;28;20455;-44
2021/07/30 07:22:43;;;;;;;6.60;3.20;;;20.20;43.50;;;;;;4143438;28;20660;-43
2021/07/30 07:24:45;;;;;;;6.60;3.65;;;20.20;43.40;;;;;;4143194;28;20079;-48
2021/07/30 07:26:48;;;;;;;8.15;3.85;;;20.20;43.30;;;;;;4140957;28;20052;-44
2021/07/30 07:28:50;;;;;;;7.22;4.03;;;20.10;43.30;;;;;;4141321;28;20172;-44
2021/07/30 07:30:53;;;;;;;7.93;3.83;;;20.10;43.30;;;;;;4141031;28;20052;-44
2021/07/30 07:32:56;;;;;;;8.98;4.70;;;20.10;43.20;;;;;;4143432;28;20208;-45
2021/07/30 07:34:58;;;;;;;6.70;4.43;;;20.10;43.20;;;;;;4139292;28;20029;-46
2021/07/30 07:37:00;;;;;;;11.48;5.72;;;20.10;43.20;;;;;;4139744;28;20327;-45
2021/07/30 07:39:03;;;;;;;11.02;4.93;;;20.10;43.30;;;;;;4137838;28;20030;-47
2021/07/30 07:41:05;;;;;;;11.85;5.18;;;20.00;43.50;;;;;;4140636;28;20493;-48
2021/07/30 07:43:07;;;;;;;9.35;5.28;;;20.00;43.80;;;;;;4139887;28;21088;-44
2021/07/30 07:45:11;;;;;;;10.43;4.82;;;20.00;44.00;;;;;;4142328;28;20021;-45
2021/07/30 07:47:13;;;;;;;10.10;4.90;;;20.00;44.20;;;;;;4140022;28;20335;-49
2021/07/30 07:49:15;;;;;;;8.45;4.85;;;20.00;44.30;;;;;;4142265;28;20025;-47
2021/07/30 07:51:18;;;;;;;11.20;5.50;;;20.00;44.30;;;;;;4136051;28;20175;-46
2021/07/30 07:53:20;;;;;;;10.73;5.35;;;20.00;44.30;;;;;;4138278;28;20533;-45
2021/07/30 07:55:22;;;;;;;8.98;4.78;;;20.00;44.50;;;;;;4140825;28;20144;-45
2021/07/30 07:57:24;;;;;;;8.18;5.10;;;20.00;44.60;;;;;;4138066;28;20526;-47
2021/07/30 07:59:26;;;;;;;9.63;5.43;;;20.00;44.60;;;;;;4138432;28;20129;-46
2021/07/30 08:02:14;;;;;;;11.75;5.28;;;20.00;44.80;;;;;;4141647;28;20466;-45
2021/07/30 08:04:17;;;;;;;9.00;5.38;;;20.00;45.00;;;;;;4154539;28;20200;-45
2021/07/30 08:06:20;;;;;;;9.75;4.68;;;19.90;45.10;;;;;;4142721;28;20040;-44
2021/07/30 08:08:22;;;;;;;12.95;5.28;;;20.00;45.20;;;;;;4141085;28;20141;-47
2021/07/30 08:10:25;;;;;;;16.65;5.32;;;20.00;45.20;;;;;;4140277;28;20360;-47
2021/07/30 08:12:27;;;;;;;8.13;4.47;;;20.00;45.20;;;;;;4139607;28;21329;-44
2021/07/30 08:14:30;;;;;;;8.98;5.28;;;19.90;45.30;;;;;;4138634;28;20357;-46
2021/07/30 08:16:32;;;;;;;15.93;4.72;;;19.90;45.20;;;;;;4139454;28;20045;-44
2021/07/30 08:18:35;;;;;;;8.70;5.15;;;19.90;45.20;;;;;;4142604;28;20048;-45
2021/07/30 08:20:37;;;;;;;9.10;4.78;;;19.90;45.40;;;;;;4139558;28;20045;-50
2021/07/30 08:22:42;;;;;;;8.07;4.75;;;19.90;45.20;;;;;;4137632;28;20406;-45
2021/07/30 08:24:44;;;;;;;10.23;4.60;;;19.90;45.20;;;;;;4135851;28;20713;-43
2021/07/30 08:26:46;;;;;;;8.40;4.50;;;19.90;45.20;;;;;;4138640;28;20445;-48
2021/07/30 08:28:49;;;;;;;8.48;4.20;;;19.90;45.30;;;;;;4139406;28;20029;-46
2021/07/30 08:30:51;;;;;;;8.38;4.53;;;19.80;45.30;;;;;;4136379;28;20033;-43
2021/07/30 08:32:53;;;;;;;6.90;4.38;;;19.90;45.40;;;;;;4142018;28;20039;-44
2021/07/30 08:34:55;;;;;;;8.55;4.65;;;19.90;45.30;;;;;;4142932;28;20641;-45
2021/07/30 08:36:57;;;;;;;9.35;4.65;;;19.80;45.60;;;;;;4136953;28;20034;-45
2021/07/30 08:39:01;;;;;;;6.72;4.13;;;19.80;45.40;;;;;;4143019;28;20465;-45
2021/07/30 08:41:02;;;;;;;;;;;19.80;45.90;;;;;;4141247;28;20136;-45
2021/07/30 08:43:04;;;;;;;8.10;4.65;;;19.80;45.80;;;;;;4139314;28;19925;-47
2021/07/30 08:45:07;;;;;;;6.78;4.38;;;19.80;45.90;;;;;;4140414;28;20802;-46
2021/07/30 08:47:11;;;;;;;9.40;4.57;;;19.80;45.80;;;;;;4143443;28;20045;-46
2021/07/30 08:49:14;;;;;;;8.05;4.28;;;19.80;45.80;;;;;;4142414;28;20044;-44
2021/07/30 08:51:19;;;;;;;7.32;4.55;;;19.80;45.90;;;;;;4149461;28;20293;-48
2021/07/30 08:53:24;;;;;;;7.22;4.47;;;19.80;45.90;;;;;;4142627;28;20037;-45
2021/07/30 08:55:33;;;;;;;6.65;3.88;;;19.80;45.90;;;;;;4143751;28;20038;-46
2021/07/30 08:57:35;;;;;;;8.02;3.78;;;19.80;45.90;;;;;;4137645;28;20098;-47
2021/07/30 08:59:42;;;;;;;6.55;4.05;;;19.80;45.90;;;;;;4139812;28;20600;-47
2021/07/30 09:01:53;;;;;;;7.32;4.22;;;19.80;46.00;;;;;;4137998;28;20172;-48
2021/07/30 09:03:55;;;;;;;6.88;4.20;;;19.80;46.20;;;;;;4135042;28;20187;-45
2021/07/30 09:05:57;;;;;;;6.88;4.07;;;19.80;46.20;;;;;;4135917;28;21800;-46
2021/07/30 09:08:05;;;;;;;8.02;4.28;;;19.80;46.20;;;;;;4132207;28;20173;-47
2021/07/30 09:10:07;;;;;;;6.97;3.88;;;19.70;46.20;;;;;;4133493;28;20446;-44
2021/07/30 09:12:09;;;;;;;9.57;3.97;;;19.70;46.30;;;;;;4133408;28;21309;-46
2021/07/30 09:14:13;;;;;;;7.60;4.20;;;19.70;46.30;;;;;;4136605;28;20901;-45
2021/07/30 09:16:15;;;;;;;5.90;3.97;;;19.70;46.30;;;;;;4136540;28;20022;-46
2021/07/30 09:18:31;;;;;;;8.63;4.70;;;19.70;46.20;;;;;;4136752;28;20044;-49
2021/07/30 09:20:33;;;;;;;6.32;3.90;;;19.70;46.30;;;;;;4135408;28;20414;-48
2021/07/30 09:22:49;;;;;;;6.93;4.00;;;19.70;46.20;;;;;;4137726;28;20040;-49
2021/07/30 09:25:00;;;;;;;6.22;3.90;;;19.70;45.90;;;;;;4134611;28;20445;-47
2021/07/30 09:27:02;;;;;;;10.45;4.38;;;19.70;45.90;;;;;;4139948;28;20069;-51
2021/07/30 09:29:11;;;;;;;6.97;4.17;;;19.70;46.00;;;;;;4136636;28;20029;-51
2021/07/30 09:31:13;;;;;;;7.40;4.15;;;19.70;46.70;;;;;;4133981;28;20283;-50
2021/07/30 09:33:25;;;;;;;6.47;3.80;;;19.70;46.20;;;;;;4134740;28;20055;-47
2021/07/30 09:35:28;;;;;;;6.55;4.03;;;19.70;46.20;;;;;;4135073;28;20375;-50
2021/07/30 09:37:30;;;;;;;7.40;4.07;;;19.60;46.10;;;;;;4136654;28;20041;-44
2021/07/30 09:39:35;;;;;;;7.20;4.20;;;19.60;46.20;;;;;;4136138;28;20458;-47
2021/07/30 09:41:38;;;;;;;7.13;3.92;;;19.60;46.20;;;;;;4134988;28;20337;-46
2021/07/30 09:43:44;;;;;;;9.73;4.57;;;19.60;46.40;;;;;;4136749;28;20998;-47
2021/07/30 09:45:46;;;;;;;6.75;4.38;;;19.60;46.70;;;;;;4137852;28;20411;-46
2021/07/30 09:47:51;;;;;;;8.13;4.55;;;19.60;46.70;;;;;;4137647;28;20637;-47
2021/07/30 09:49:59;;;;;;;6.75;3.90;;;19.50;46.70;;;;;;4135077;28;20120;-45
2021/07/30 09:52:01;;;;;;;6.00;4.00;;;19.50;46.80;;;;;;4138984;28;20166;-48
2021/07/30 09:54:04;;;;;;;9.37;4.43;;;19.50;46.80;;;;;;4134098;28;20096;-45
2021/07/30 09:56:07;;;;;;;7.88;4.68;;;19.50;46.80;;;;;;4132130;28;20422;-45
2021/07/30 09:58:10;;;;;;;16.40;4.45;;;19.50;47.00;;;;;;4136208;28;20159;-45
2021/07/30 10:00:16;;;;;;;6.05;3.85;;;19.40;47.00;;;;;;4138157;28;20423;-45
2021/07/30 10:02:21;;;;;;;6.65;3.80;;;19.40;47.10;;;;;;4136322;28;20466;-47
2021/07/30 10:04:27;;;;;;;7.43;4.07;;;19.40;47.10;;;;;;4135471;28;20404;-47
2021/07/30 10:06:29;;;;;;;5.70;3.80;;;19.40;47.10;;;;;;4135303;28;20487;-44
2021/07/30 10:08:33;;;;;;;7.43;4.30;;;19.40;47.10;;;;;;4136191;28;20551;-45
2021/07/30 10:10:40;;;;;;;7.82;4.05;;;19.50;47.20;;;;;;4134744;28;20545;-50
2021/07/30 10:12:53;;;;;;;7.40;4.50;;;19.40;47.00;;;;;;4128994;28;20354;-48
2021/07/30 10:14:55;;;;;;;;;;;19.40;47.00;;;;;;4129418;28;20640;-45
2021/07/30 10:17:03;;;;;;;7.45;3.90;;;19.40;47.00;;;;;;4130938;28;19963;-45
2021/07/30 10:19:06;;;;;;;5.60;4.18;;;19.40;47.00;;;;;;4131665;28;20037;-49
2021/07/30 10:21:08;;;;;;;;;;;19.30;46.90;;;;;;4129713;28;20071;-47
2021/07/30 10:23:15;;;;;;;6.18;4.18;;;19.30;47.10;;;;;;4132310;28;19925;-47
2021/07/30 10:25:32;;;;;;;6.13;3.72;;;19.30;47.10;;;;;;4135488;28;20678;-50
2021/07/30 10:27:41;;;;;;;6.43;3.95;;;19.30;47.10;;;;;;4135663;28;20064;-49
2021/07/30 10:30:03;;;;;;;6.20;3.95;;;19.30;47.20;;;;;;4134883;28;21020;-46
2021/07/30 10:32:06;;;;;;;8.23;3.90;;;19.30;47.20;;;;;;4134956;28;20030;-47
2021/07/30 10:34:08;;;;;;;7.13;4.07;;;19.20;47.20;;;;;;4138587;28;20692;-46
2021/07/30 10:36:12;;;;;;;5.45;3.95;;;19.20;47.30;;;;;;4137220;28;20044;-50
2021/07/30 10:38:21;;;;;;;7.75;3.95;;;19.20;47.30;;;;;;4137430;28;20061;-47
2021/07/30 10:40:24;;;;;;;7.45;4.00;;;19.20;47.10;;;;;;4133074;28;20042;-47
2021/07/30 10:42:26;;;;;;;5.45;3.70;;;19.20;47.10;;;;;;4136036;28;20052;-47
2021/07/30 10:44:28;;;;;;;5.85;3.70;;;19.20;47.10;;;;;;4138533;28;20030;-52
2021/07/30 10:46:31;;;;;;;8.02;4.22;;;19.10;47.00;;;;;;4139641;28;20044;-45
2021/07/30 10:48:34;;;;;;;7.30;4.30;;;19.10;47.10;;;;;;4141879;28;20060;-51
2021/07/30 10:51:10;;;;;;;5.45;4.13;;;19.10;47.40;;;;;;4140355;28;20341;-50
2021/07/30 10:53:39;;;;;;;6.60;4.03;;;19.10;47.20;;;;;;4136463;28;20115;-47
2021/07/30 10:55:45;;;;;;;8.05;4.40;;;19.10;47.40;;;;;;4138726;28;20425;-48
2021/07/30 10:57:48;;;;;;;6.93;3.88;;;;;;;;;;4135989;28;20072;-48